sensor_id;sensor_type;location;lat;lon;timestamp;pressure;altitude;pressure_sealevel;temperature;humidity
13800;BME280;6971;50.028;9.258;2023-04-08T00:02:10;99723.59;;;4.21;100.00
13800;BME280;6971;50.028;9.258;2023-04-08T00:07:11;99732.31;;;4.20;100.00
13800;BME280;6971;50.028;9.258;2023-04-08T00:12:11;99732.34;;;4.18;100.00
13800;BME280;6971;50.028;9.258;2023-04-08T00:17:11;99725.50;;;4.14;100.00
13800;BME280;6971;50.028;9.258;2023-04-08T00:22:12;99733.53;;;4.05;100.00
13800;BME280;6971;50.028;9.258;2023-04-08T00:27:12;99737.91;;;4.04;100.00
13800;BME280;6971;50.028;9.258;2023-04-08T00:32:12;99744.41;;;3.85;100.00
13800;BME280;6971;50.028;9.258;2023-04-08T00:37:12;99742.59;;;3.88;100.00
13800;BME280;6971;50.028;9.258;2023-04-08T00:42:13;99741.13;;;3.75;100.00
13800;BME280;6971;50.028;9.258;2023-04-08T00:47:17;99735.34;;;3.59;100.00
13800;BME280;6971;50.028;9.258;2023-04-08T00:52:17;99737.25;;;3.50;100.00
13800;BME280;6971;50.028;9.258;2023-04-08T00:57:17;99743.72;;;3.31;100.00
13800;BME280;6971;50.028;9.258;2023-04-08T01:02:28;99750.94;;;3.16;100.00
13800;BME280;6971;50.028;9.258;2023-04-08T01:07:35;99752.06;;;3.03;100.00
13800;BME280;6971;50.028;9.258;2023-04-08T01:12:41;99740.31;;;2.80;100.00
13800;BME280;6971;50.028;9.258;2023-04-08T01:17:43;99740.50;;;2.67;100.00
13800;BME280;6971;50.028;9.258;2023-04-08T01:28:03;99740.16;;;2.32;100.00
13800;BME280;6971;50.028;9.258;2023-04-08T01:33:05;99742.69;;;2.37;100.00
13800;BME280;6971;50.028;9.258;2023-04-08T01:38:08;99743.91;;;2.13;100.00
13800;BME280;6971;50.028;9.258;2023-04-08T01:43:09;99739.88;;;1.91;100.00
13800;BME280;6971;50.028;9.258;2023-04-08T01:48:12;99738.97;;;1.94;100.00
13800;BME280;6971;50.028;9.258;2023-04-08T01:53:13;99740.06;;;1.76;100.00
13800;BME280;6971;50.028;9.258;2023-04-08T01:58:17;99739.44;;;1.55;100.00
13800;BME280;6971;50.028;9.258;2023-04-08T02:03:20;99749.00;;;1.56;100.00
13800;BME280;6971;50.028;9.258;2023-04-08T02:08:21;99750.94;;;1.34;100.00
13800;BME280;6971;50.028;9.258;2023-04-08T02:13:21;99757.94;;;1.27;100.00
13800;BME280;6971;50.028;9.258;2023-04-08T02:18:24;99761.53;;;1.16;100.00
13800;BME280;6971;50.028;9.258;2023-04-08T02:23:27;99759.72;;;1.23;100.00
13800;BME280;6971;50.028;9.258;2023-04-08T02:28:29;99759.03;;;1.04;100.00
13800;BME280;6971;50.028;9.258;2023-04-08T02:33:31;99760.75;;;1.03;100.00
13800;BME280;6971;50.028;9.258;2023-04-08T02:38:32;99769.53;;;0.90;100.00
13800;BME280;6971;50.028;9.258;2023-04-08T02:43:33;99768.72;;;0.83;100.00
13800;BME280;6971;50.028;9.258;2023-04-08T02:48:33;99763.63;;;0.74;100.00
13800;BME280;6971;50.028;9.258;2023-04-08T02:53:34;99768.06;;;0.61;100.00
13800;BME280;6971;50.028;9.258;2023-04-08T02:58:34;99774.97;;;0.59;100.00
13800;BME280;6971;50.028;9.258;2023-04-08T03:03:34;99781.94;;;0.54;100.00
13800;BME280;6971;50.028;9.258;2023-04-08T03:08:35;99776.69;;;0.61;100.00
13800;BME280;6971;50.028;9.258;2023-04-08T03:13:35;99781.09;;;0.50;100.00
13800;BME280;6971;50.028;9.258;2023-04-08T03:18:36;99790.53;;;0.65;100.00
13800;BME280;6971;50.028;9.258;2023-04-08T03:23:36;99796.63;;;0.56;100.00
13800;BME280;6971;50.028;9.258;2023-04-08T03:28:36;99794.84;;;0.60;100.00
13800;BME280;6971;50.028;9.258;2023-04-08T03:33:37;99794.03;;;0.55;100.00
13800;BME280;6971;50.028;9.258;2023-04-08T03:38:37;99789.66;;;0.61;100.00
13800;BME280;6971;50.028;9.258;2023-04-08T03:43:37;99790.53;;;0.57;100.00
13800;BME280;6971;50.028;9.258;2023-04-08T03:48:38;99786.16;;;0.69;100.00
13800;BME280;6971;50.028;9.258;2023-04-08T03:53:38;99798.25;;;0.71;100.00
13800;BME280;6971;50.028;9.258;2023-04-08T03:58:38;99785.19;;;0.81;100.00
13800;BME280;6971;50.028;9.258;2023-04-08T04:03:39;99790.31;;;0.88;100.00
13800;BME280;6971;50.028;9.258;2023-04-08T04:08:39;99784.28;;;0.89;100.00
13800;BME280;6971;50.028;9.258;2023-04-08T04:13:39;99787.72;;;0.88;100.00
13800;BME280;6971;50.028;9.258;2023-04-08T04:18:40;99797.19;;;0.93;100.00
13800;BME280;6971;50.028;9.258;2023-04-08T04:23:40;99799.84;;;0.91;100.00
13800;BME280;6971;50.028;9.258;2023-04-08T04:28:40;99801.47;;;1.03;100.00
13800;BME280;6971;50.028;9.258;2023-04-08T04:33:41;99803.19;;;0.99;100.00
13800;BME280;6971;50.028;9.258;2023-04-08T04:38:41;99805.72;;;1.09;100.00
13800;BME280;6971;50.028;9.258;2023-04-08T04:43:42;99805.72;;;1.09;100.00
13800;BME280;6971;50.028;9.258;2023-04-08T04:48:42;99810.94;;;1.07;100.00
13800;BME280;6971;50.028;9.258;2023-04-08T04:53:42;99814.34;;;1.12;100.00
13800;BME280;6971;50.028;9.258;2023-04-08T04:58:43;99814.25;;;1.25;100.00
13800;BME280;6971;50.028;9.258;2023-04-08T05:03:43;99818.63;;;1.18;100.00
13800;BME280;6971;50.028;9.258;2023-04-08T05:08:43;99822.78;;;1.35;100.00
13800;BME280;6971;50.028;9.258;2023-04-08T05:13:44;99822.69;;;1.44;100.00
13800;BME280;6971;50.028;9.258;2023-04-08T05:18:44;99829.56;;;1.50;100.00
13800;BME280;6971;50.028;9.258;2023-04-08T05:23:45;99837.25;;;1.59;100.00
13800;BME280;6971;50.028;9.258;2023-04-08T05:28:45;99832.44;;;1.25;100.00
13800;BME280;6971;50.028;9.258;2023-04-08T05:33:46;99836.47;;;1.51;100.00
13800;BME280;6971;50.028;9.258;2023-04-08T05:38:46;99840.75;;;1.58;100.00
13800;BME280;6971;50.028;9.258;2023-04-08T05:43:46;99848.53;;;1.60;100.00
13800;BME280;6971;50.028;9.258;2023-04-08T05:48:47;99856.91;;;1.88;100.00
13800;BME280;6971;50.028;9.258;2023-04-08T05:53:47;99865.31;;;2.09;100.00
13800;BME280;6971;50.028;9.258;2023-04-08T05:58:47;99859.22;;;2.13;100.00
13800;BME280;6971;50.028;9.258;2023-04-08T06:03:48;99864.44;;;2.10;100.00
13800;BME280;6971;50.028;9.258;2023-04-08T06:08:48;99866.94;;;2.19;100.00
13800;BME280;6971;50.028;9.258;2023-04-08T06:13:48;99868.50;;;2.31;100.00
13800;BME280;6971;50.028;9.258;2023-04-08T06:18:49;99878.72;;;2.48;100.00
13800;BME280;6971;50.028;9.258;2023-04-08T06:23:49;99888.06;;;2.62;100.00
13800;BME280;6971;50.028;9.258;2023-04-08T06:28:50;99888.53;;;2.91;100.00
13800;BME280;6971;50.028;9.258;2023-04-08T06:33:51;99890.88;;;3.08;100.00
13800;BME280;6971;50.028;9.258;2023-04-08T06:38:51;99900.06;;;3.31;100.00
13800;BME280;6971;50.028;9.258;2023-04-08T06:43:52;99895.38;;;3.51;100.00
13800;BME280;6971;50.028;9.258;2023-04-08T06:48:52;99898.59;;;3.66;100.00
13800;BME280;6971;50.028;9.258;2023-04-08T06:53:52;99898.38;;;3.78;100.00
13800;BME280;6971;50.028;9.258;2023-04-08T06:58:53;99900.88;;;3.83;100.00
13800;BME280;6971;50.028;9.258;2023-04-08T07:03:53;99903.06;;;3.58;100.00
13800;BME280;6971;50.028;9.258;2023-04-08T07:08:53;99900.22;;;3.73;100.00
13800;BME280;6971;50.028;9.258;2023-04-08T07:13:54;99913.78;;;3.91;100.00
13800;BME280;6971;50.028;9.258;2023-04-08T07:18:54;99912.16;;;4.29;100.00
13800;BME280;6971;50.028;9.258;2023-04-08T07:23:56;99919.84;;;4.37;100.00
13800;BME280;6971;50.028;9.258;2023-04-08T07:28:56;99922.34;;;4.42;100.00
13800;BME280;6971;50.028;9.258;2023-04-08T07:33:56;99924.91;;;4.45;100.00
13800;BME280;6971;50.028;9.258;2023-04-08T07:38:56;99924.50;;;4.65;100.00
13800;BME280;6971;50.028;9.258;2023-04-08T07:43:57;99933.09;;;4.69;100.00
13800;BME280;6971;50.028;9.258;2023-04-08T07:48:57;99931.53;;;4.62;100.00
13800;BME280;6971;50.028;9.258;2023-04-08T07:53:58;99939.78;;;4.82;100.00
13800;BME280;6971;50.028;9.258;2023-04-08T07:58:58;99942.88;;;5.00;100.00
13800;BME280;6971;50.028;9.258;2023-04-08T08:03:59;99954.53;;;4.85;100.00
13800;BME280;6971;50.028;9.258;2023-04-08T08:09:00;99960.75;;;4.79;100.00
13800;BME280;6971;50.028;9.258;2023-04-08T08:14:00;99963.03;;;4.95;100.00
13800;BME280;6971;50.028;9.258;2023-04-08T08:19:01;99966.25;;;5.06;100.00
13800;BME280;6971;50.028;9.258;2023-04-08T08:24:02;99960.97;;;5.08;100.00
13800;BME280;6971;50.028;9.258;2023-04-08T08:29:03;99975.69;;;4.73;100.00
13800;BME280;6971;50.028;9.258;2023-04-08T08:34:04;99983.41;;;4.77;100.00
13800;BME280;6971;50.028;9.258;2023-04-08T08:39:04;99989.78;;;5.06;100.00
13800;BME280;6971;50.028;9.258;2023-04-08T08:44:05;99992.28;;;5.11;100.00
13800;BME280;6971;50.028;9.258;2023-04-08T08:49:06;99984.38;;;5.14;100.00
13800;BME280;6971;50.028;9.258;2023-04-08T08:54:07;99988.91;;;5.44;100.00
13800;BME280;6971;50.028;9.258;2023-04-08T08:59:08;99979.03;;;5.57;100.00
13800;BME280;6971;50.028;9.258;2023-04-08T09:04:13;99989.34;;;5.98;100.00
13800;BME280;6971;50.028;9.258;2023-04-08T09:09:18;99990.63;;;6.18;100.00
13800;BME280;6971;50.028;9.258;2023-04-08T09:14:23;99998.84;;;6.67;100.00
13800;BME280;6971;50.028;9.258;2023-04-08T09:19:24;99997.66;;;6.79;86.39
13800;BME280;6971;50.028;9.258;2023-04-08T09:24:29;100010.66;;;7.12;82.18
13800;BME280;6971;50.028;9.258;2023-04-08T09:29:30;100010.84;;;7.06;78.52
13800;BME280;6971;50.028;9.258;2023-04-08T09:34:30;100003.06;;;7.60;76.29
13800;BME280;6971;50.028;9.258;2023-04-08T09:39:33;99998.81;;;8.08;72.52
13800;BME280;6971;50.028;9.258;2023-04-08T09:44:34;100007.28;;;9.38;70.91
13800;BME280;6971;50.028;9.258;2023-04-08T09:49:49;100008.69;;;10.11;66.24
13800;BME280;6971;50.028;9.258;2023-04-08T09:55:04;100010.03;;;10.21;64.98
13800;BME280;6971;50.028;9.258;2023-04-08T10:00:10;100011.72;;;10.22;65.39
13800;BME280;6971;50.028;9.258;2023-04-08T10:05:12;100003.66;;;9.63;67.46
13800;BME280;6971;50.028;9.258;2023-04-08T10:10:13;100002.91;;;9.82;66.64
13800;BME280;6971;50.028;9.258;2023-04-08T10:25:39;100007.69;;;9.49;69.47
13800;BME280;6971;50.028;9.258;2023-04-08T10:30:50;100006.72;;;9.30;69.82
13800;BME280;6971;50.028;9.258;2023-04-08T10:36:00;100005.00;;;9.29;69.61
13800;BME280;6971;50.028;9.258;2023-04-08T10:41:10;100004.25;;;9.25;68.93
13800;BME280;6971;50.028;9.258;2023-04-08T10:46:13;100003.84;;;9.13;69.77
13800;BME280;6971;50.028;9.258;2023-04-08T10:51:13;99997.88;;;9.75;68.22
13800;BME280;6971;50.028;9.258;2023-04-08T10:56:14;100003.72;;;10.65;68.05
13800;BME280;6971;50.028;9.258;2023-04-08T11:01:17;99997.31;;;10.10;68.52
13800;BME280;6971;50.028;9.258;2023-04-08T11:06:20;100002.38;;;10.76;67.57
13800;BME280;6971;50.028;9.258;2023-04-08T11:11:21;100005.59;;;11.21;64.98
13800;BME280;6971;50.028;9.258;2023-04-08T11:16:23;100004.03;;;10.59;67.02
13800;BME280;6971;50.028;9.258;2023-04-08T11:21:23;100001.75;;;11.09;66.26
13800;BME280;6971;50.028;9.258;2023-04-08T11:26:25;100006.75;;;11.52;64.80
13800;BME280;6971;50.028;9.258;2023-04-08T11:31:26;99988.91;;;11.57;63.82
13800;BME280;6971;50.028;9.258;2023-04-08T11:36:27;99986.06;;;11.06;66.49
13800;BME280;6971;50.028;9.258;2023-04-08T11:41:38;99980.66;;;10.90;67.76
13800;BME280;6971;50.028;9.258;2023-04-08T11:46:39;99979.97;;;10.46;68.49
13800;BME280;6971;50.028;9.258;2023-04-08T11:51:55;99979.31;;;10.62;69.48
13800;BME280;6971;50.028;9.258;2023-04-08T11:56:57;99979.66;;;10.92;67.63
13800;BME280;6971;50.028;9.258;2023-04-08T12:01:58;99987.38;;;10.97;70.02
13800;BME280;6971;50.028;9.258;2023-04-08T12:06:58;99986.13;;;11.04;68.93
13800;BME280;6971;50.028;9.258;2023-04-08T12:11:59;99983.72;;;10.80;69.29
13800;BME280;6971;50.028;9.258;2023-04-08T12:17:00;99992.91;;;10.52;71.58
13800;BME280;6971;50.028;9.258;2023-04-08T12:22:00;99984.22;;;10.69;70.33
13800;BME280;6971;50.028;9.258;2023-04-08T12:27:01;99989.63;;;10.66;70.51
13800;BME280;6971;50.028;9.258;2023-04-08T12:32:03;99982.00;;;10.60;72.03
13800;BME280;6971;50.028;9.258;2023-04-08T12:37:04;99989.13;;;10.37;72.50
13800;BME280;6971;50.028;9.258;2023-04-08T12:42:05;99985.16;;;10.08;74.09
13800;BME280;6971;50.028;9.258;2023-04-08T12:47:05;99983.50;;;10.05;75.19
13800;BME280;6971;50.028;9.258;2023-04-08T12:52:05;99982.22;;;10.14;74.66
13800;BME280;6971;50.028;9.258;2023-04-08T12:57:06;99991.56;;;9.79;76.30
13800;BME280;6971;50.028;9.258;2023-04-08T13:02:07;99983.34;;;9.87;76.52
13800;BME280;6971;50.028;9.258;2023-04-08T13:07:08;99975.88;;;9.56;78.34
13800;BME280;6971;50.028;9.258;2023-04-08T13:12:08;99976.63;;;9.80;77.16
13800;BME280;6971;50.028;9.258;2023-04-08T13:17:09;99982.22;;;9.93;76.60
13800;BME280;6971;50.028;9.258;2023-04-08T13:22:10;99983.69;;;10.00;76.68
13800;BME280;6971;50.028;9.258;2023-04-08T13:27:10;99987.22;;;10.20;75.76
13800;BME280;6971;50.028;9.258;2023-04-08T13:32:10;99984.28;;;10.28;74.58
13800;BME280;6971;50.028;9.258;2023-04-08T13:37:11;99984.00;;;10.34;75.07
13800;BME280;6971;50.028;9.258;2023-04-08T13:42:11;99984.47;;;10.23;75.62
13800;BME280;6971;50.028;9.258;2023-04-08T13:47:11;99986.56;;;10.36;73.98
13800;BME280;6971;50.028;9.258;2023-04-08T13:52:12;99983.84;;;10.37;75.18
13800;BME280;6971;50.028;9.258;2023-04-08T13:57:12;99981.84;;;10.44;74.02
13800;BME280;6971;50.028;9.258;2023-04-08T14:02:12;99977.38;;;10.65;74.07
13800;BME280;6971;50.028;9.258;2023-04-08T14:07:13;99977.72;;;10.57;72.99
13800;BME280;6971;50.028;9.258;2023-04-08T14:12:13;99989.69;;;11.03;70.48
13800;BME280;6971;50.028;9.258;2023-04-08T14:17:14;99990.72;;;11.01;71.18
13800;BME280;6971;50.028;9.258;2023-04-08T14:22:14;99980.06;;;10.64;71.73
13800;BME280;6971;50.028;9.258;2023-04-08T14:27:16;99988.34;;;10.75;71.78
13800;BME280;6971;50.028;9.258;2023-04-08T14:32:16;99983.66;;;10.82;71.86
13800;BME280;6971;50.028;9.258;2023-04-08T14:37:16;99983.28;;;10.90;72.04
13800;BME280;6971;50.028;9.258;2023-04-08T14:42:17;99980.16;;;10.81;72.46
13800;BME280;6971;50.028;9.258;2023-04-08T14:47:17;99978.44;;;10.80;72.52
13800;BME280;6971;50.028;9.258;2023-04-08T14:52:18;99981.66;;;10.87;72.89
13800;BME280;6971;50.028;9.258;2023-04-08T14:57:18;99975.88;;;10.60;73.84
13800;BME280;6971;50.028;9.258;2023-04-08T15:02:19;99970.88;;;10.32;75.62
13800;BME280;6971;50.028;9.258;2023-04-08T15:07:19;99977.34;;;10.46;75.25
13800;BME280;6971;50.028;9.258;2023-04-08T15:12:20;99986.13;;;10.47;75.02
13800;BME280;6971;50.028;9.258;2023-04-08T15:17:20;99989.06;;;10.18;75.68
13800;BME280;6971;50.028;9.258;2023-04-08T15:22:21;99987.50;;;10.14;77.25
13800;BME280;6971;50.028;9.258;2023-04-08T15:27:21;99996.31;;;10.13;77.26
13800;BME280;6971;50.028;9.258;2023-04-08T15:32:21;100002.31;;;10.16;78.07
13800;BME280;6971;50.028;9.258;2023-04-08T15:37:22;100001.84;;;10.06;78.73
13800;BME280;6971;50.028;9.258;2023-04-08T15:42:23;99999.88;;;9.91;80.67
13800;BME280;6971;50.028;9.258;2023-04-08T15:47:24;100001.84;;;10.06;78.39
13800;BME280;6971;50.028;9.258;2023-04-08T15:52:24;100003.75;;;10.03;79.31
13800;BME280;6971;50.028;9.258;2023-04-08T15:57:25;100014.22;;;10.04;78.92
13800;BME280;6971;50.028;9.258;2023-04-08T16:02:25;100009.28;;;10.17;82.03
13800;BME280;6971;50.028;9.258;2023-04-08T16:07:26;100016.88;;;10.04;80.97
13800;BME280;6971;50.028;9.258;2023-04-08T16:12:27;100002.22;;;9.97;84.51
13800;BME280;6971;50.028;9.258;2023-04-08T16:17:27;100013.56;;;9.99;79.80
13800;BME280;6971;50.028;9.258;2023-04-08T16:22:28;100018.78;;;10.01;81.34
13800;BME280;6971;50.028;9.258;2023-04-08T16:27:28;100027.91;;;9.92;76.70
13800;BME280;6971;50.028;9.258;2023-04-08T16:32:28;100035.81;;;9.92;78.35
13800;BME280;6971;50.028;9.258;2023-04-08T16:37:29;100032.63;;;9.84;76.04
13800;BME280;6971;50.028;9.258;2023-04-08T16:42:30;100038.28;;;9.74;76.51
13800;BME280;6971;50.028;9.258;2023-04-08T16:47:32;100047.75;;;9.78;76.36
13800;BME280;6971;50.028;9.258;2023-04-08T16:52:32;100054.44;;;9.65;76.36
13800;BME280;6971;50.028;9.258;2023-04-08T16:57:33;100051.25;;;9.57;76.34
13800;BME280;6971;50.028;9.258;2023-04-08T17:02:33;100063.25;;;9.64;76.88
13800;BME280;6971;50.028;9.258;2023-04-08T17:07:33;100066.44;;;9.50;77.13
13800;BME280;6971;50.028;9.258;2023-04-08T17:12:34;100069.25;;;9.45;77.39
13800;BME280;6971;50.028;9.258;2023-04-08T17:17:34;100078.06;;;9.44;78.59
13800;BME280;6971;50.028;9.258;2023-04-08T17:22:35;100083.25;;;9.23;78.68
13800;BME280;6971;50.028;9.258;2023-04-08T17:27:35;100084.28;;;9.19;79.53
13800;BME280;6971;50.028;9.258;2023-04-08T17:32:36;100095.63;;;9.20;78.22
13800;BME280;6971;50.028;9.258;2023-04-08T17:37:36;100097.28;;;8.98;75.47
13800;BME280;6971;50.028;9.258;2023-04-08T17:42:36;100100.22;;;9.14;75.10
13800;BME280;6971;50.028;9.258;2023-04-08T17:47:36;100104.41;;;8.96;75.91
13800;BME280;6971;50.028;9.258;2023-04-08T17:52:37;100103.09;;;8.83;78.20
13800;BME280;6971;50.028;9.258;2023-04-08T17:57:37;100116.56;;;8.73;78.08
13800;BME280;6971;50.028;9.258;2023-04-08T18:02:38;100122.19;;;8.62;76.45
13800;BME280;6971;50.028;9.258;2023-04-08T18:07:40;100134.19;;;8.44;80.55
13800;BME280;6971;50.028;9.258;2023-04-08T18:12:40;100142.69;;;8.26;80.81
13800;BME280;6971;50.028;9.258;2023-04-08T18:17:41;100144.25;;;8.03;80.38
13800;BME280;6971;50.028;9.258;2023-04-08T18:22:41;100158.84;;;7.84;81.69
13800;BME280;6971;50.028;9.258;2023-04-08T18:27:42;100160.66;;;7.82;83.15
13800;BME280;6971;50.028;9.258;2023-04-08T18:32:42;100163.66;;;7.70;79.39
13800;BME280;6971;50.028;9.258;2023-04-08T18:37:42;100177.19;;;7.56;83.81
13800;BME280;6971;50.028;9.258;2023-04-08T18:42:43;100171.06;;;7.25;87.59
13800;BME280;6971;50.028;9.258;2023-04-08T18:47:43;100176.25;;;7.27;88.26
13800;BME280;6971;50.028;9.258;2023-04-08T18:52:43;100171.91;;;7.26;87.95
13800;BME280;6971;50.028;9.258;2023-04-08T18:57:43;100176.09;;;7.01;88.97
13800;BME280;6971;50.028;9.258;2023-04-08T19:02:44;100177.44;;;6.83;90.64
13800;BME280;6971;50.028;9.258;2023-04-08T19:07:44;100179.44;;;6.73;91.33
13800;BME280;6971;50.028;9.258;2023-04-08T19:12:44;100179.97;;;6.53;93.67
13800;BME280;6971;50.028;9.258;2023-04-08T19:17:45;100177.16;;;6.24;96.24
13800;BME280;6971;50.028;9.258;2023-04-08T19:22:46;100174.16;;;6.02;100.00
13800;BME280;6971;50.028;9.258;2023-04-08T19:27:49;100173.78;;;5.80;100.00
13800;BME280;6971;50.028;9.258;2023-04-08T19:32:50;100179.63;;;5.50;100.00
13800;BME280;6971;50.028;9.258;2023-04-08T19:37:50;100190.88;;;5.09;100.00
13800;BME280;6971;50.028;9.258;2023-04-08T19:42:51;100182.78;;;5.23;100.00
13800;BME280;6971;50.028;9.258;2023-04-08T19:47:58;100186.50;;;5.12;100.00
13800;BME280;6971;50.028;9.258;2023-04-08T19:52:59;100197.25;;;4.94;100.00
13800;BME280;6971;50.028;9.258;2023-04-08T19:57:59;100199.28;;;4.78;100.00
13800;BME280;6971;50.028;9.258;2023-04-08T20:02:59;100198.38;;;4.81;100.00
13800;BME280;6971;50.028;9.258;2023-04-08T20:08:00;100204.22;;;4.43;100.00
13800;BME280;6971;50.028;9.258;2023-04-08T20:13:00;100206.94;;;4.37;100.00
13800;BME280;6971;50.028;9.258;2023-04-08T20:18:00;100200.41;;;4.10;100.00
13800;BME280;6971;50.028;9.258;2023-04-08T20:23:00;100207.47;;;4.01;100.00
13800;BME280;6971;50.028;9.258;2023-04-08T20:28:01;100210.97;;;4.00;100.00
13800;BME280;6971;50.028;9.258;2023-04-08T20:33:02;100211.16;;;3.85;100.00
13800;BME280;6971;50.028;9.258;2023-04-08T20:38:02;100209.50;;;3.79;100.00
13800;BME280;6971;50.028;9.258;2023-04-08T20:43:02;100218.25;;;3.75;100.00
13800;BME280;6971;50.028;9.258;2023-04-08T20:48:03;100216.53;;;3.74;100.00
13800;BME280;6971;50.028;9.258;2023-04-08T20:53:04;100220.97;;;3.67;100.00
13800;BME280;6971;50.028;9.258;2023-04-08T20:58:04;100221.88;;;3.63;100.00
13800;BME280;6971;50.028;9.258;2023-04-08T21:03:06;100222.88;;;3.52;100.00
13800;BME280;6971;50.028;9.258;2023-04-08T21:08:07;100220.31;;;3.49;100.00
13800;BME280;6971;50.028;9.258;2023-04-08T21:13:07;100218.84;;;3.26;100.00
13800;BME280;6971;50.028;9.258;2023-04-08T21:18:07;100219.78;;;3.19;100.00
13800;BME280;6971;50.028;9.258;2023-04-08T21:23:10;100218.22;;;3.04;100.00
13800;BME280;6971;50.028;9.258;2023-04-08T21:28:11;100222.66;;;2.94;100.00
13800;BME280;6971;50.028;9.258;2023-04-08T21:33:11;100225.38;;;2.77;100.00
13800;BME280;6971;50.028;9.258;2023-04-08T21:38:12;100226.34;;;2.67;100.00
13800;BME280;6971;50.028;9.258;2023-04-08T21:43:14;100232.53;;;2.56;100.00
13800;BME280;6971;50.028;9.258;2023-04-08T21:48:14;100232.56;;;2.50;100.00
13800;BME280;6971;50.028;9.258;2023-04-08T21:53:15;100231.81;;;2.34;100.00
13800;BME280;6971;50.028;9.258;2023-04-08T21:58:15;100227.56;;;2.24;100.00
13800;BME280;6971;50.028;9.258;2023-04-08T22:03:16;100226.69;;;2.25;100.00
13800;BME280;6971;50.028;9.258;2023-04-08T22:08:16;100229.34;;;2.17;100.00
13800;BME280;6971;50.028;9.258;2023-04-08T22:13:16;100233.78;;;1.98;100.00
13800;BME280;6971;50.028;9.258;2023-04-08T22:18:19;100233.84;;;1.88;100.00
13800;BME280;6971;50.028;9.258;2023-04-08T22:23:19;100222.59;;;1.81;100.00
13800;BME280;6971;50.028;9.258;2023-04-08T22:28:20;100227.84;;;1.67;100.00
13800;BME280;6971;50.028;9.258;2023-04-08T22:33:22;100220.09;;;1.55;100.00
13800;BME280;6971;50.028;9.258;2023-04-08T22:38:23;100211.47;;;1.53;100.00
13800;BME280;6971;50.028;9.258;2023-04-08T22:43:23;100221.94;;;1.34;100.00
13800;BME280;6971;50.028;9.258;2023-04-08T22:48:23;100219.34;;;1.29;100.00
13800;BME280;6971;50.028;9.258;2023-04-08T22:53:24;100224.56;;;1.19;100.00
13800;BME280;6971;50.028;9.258;2023-04-08T22:58:24;100228.06;;;1.07;100.00
13800;BME280;6971;50.028;9.258;2023-04-08T23:03:24;100218.56;;;0.98;100.00
13800;BME280;6971;50.028;9.258;2023-04-08T23:08:25;100216.81;;;1.00;100.00
13800;BME280;6971;50.028;9.258;2023-04-08T23:13:26;100222.03;;;0.87;100.00
13800;BME280;6971;50.028;9.258;2023-04-08T23:18:27;100214.28;;;0.83;100.00
13800;BME280;6971;50.028;9.258;2023-04-08T23:23:27;100213.41;;;0.63;100.00
13800;BME280;6971;50.028;9.258;2023-04-08T23:28:28;100222.94;;;0.66;100.00
13800;BME280;6971;50.028;9.258;2023-04-08T23:33:28;100229.00;;;0.67;100.00
13800;BME280;6971;50.028;9.258;2023-04-08T23:38:29;100222.06;;;0.51;100.00
13800;BME280;6971;50.028;9.258;2023-04-08T23:43:29;100226.34;;;0.35;100.00
13800;BME280;6971;50.028;9.258;2023-04-08T23:48:30;100226.38;;;0.34;100.00
13800;BME280;6971;50.028;9.258;2023-04-08T23:53:30;100219.44;;;0.33;100.00
13800;BME280;6971;50.028;9.258;2023-04-08T23:58:31;100225.47;;;0.18;100.00
